sensor_id;sensor_type;location;lat;lon;timestamp;P1;durP1;ratioP1;P2;durP2;ratioP2
41167;SDS011;26906;45.658;9.272;2023-07-20T05:35:33;14.75;;;10.40;;
41167;SDS011;26906;45.658;9.272;2023-07-20T05:38:01;20.52;;;10.45;;
41167;SDS011;26906;45.658;9.272;2023-07-20T05:40:26;19.17;;;10.05;;
41167;SDS011;26906;45.658;9.272;2023-07-20T05:42:52;16.58;;;9.77;;
41167;SDS011;26906;45.658;9.272;2023-07-20T05:45:18;13.82;;;9.98;;
41167;SDS011;26906;45.658;9.272;2023-07-20T05:47:45;22.33;;;11.40;;
41167;SDS011;26906;45.658;9.272;2023-07-20T05:50:11;15.23;;;9.73;;
41167;SDS011;26906;45.658;9.272;2023-07-20T05:52:37;12.93;;;8.93;;
41167;SDS011;26906;45.658;9.272;2023-07-20T05:55:04;13.75;;;9.10;;
41167;SDS011;26906;45.658;9.272;2023-07-20T05:57:30;14.02;;;8.77;;
41167;SDS011;26906;45.658;9.272;2023-07-20T05:59:56;12.07;;;6.88;;
41167;SDS011;26906;45.658;9.272;2023-07-20T06:02:21;12.70;;;7.38;;
41167;SDS011;26906;45.658;9.272;2023-07-20T06:04:47;14.70;;;6.95;;
41167;SDS011;26906;45.658;9.272;2023-07-20T06:07:13;13.77;;;6.57;;
41167;SDS011;26906;45.658;9.272;2023-07-20T06:09:39;15.68;;;6.75;;
41167;SDS011;26906;45.658;9.272;2023-07-20T06:12:05;15.50;;;6.50;;
41167;SDS011;26906;45.658;9.272;2023-07-20T06:14:31;14.55;;;6.68;;
41167;SDS011;26906;45.658;9.272;2023-07-20T06:16:57;12.07;;;6.18;;
41167;SDS011;26906;45.658;9.272;2023-07-20T06:19:23;13.57;;;7.13;;
41167;SDS011;26906;45.658;9.272;2023-07-20T06:21:48;22.20;;;6.55;;
41167;SDS011;26906;45.658;9.272;2023-07-20T06:24:17;11.65;;;6.18;;
41167;SDS011;26906;45.658;9.272;2023-07-20T06:26:43;17.65;;;6.90;;
41167;SDS011;26906;45.658;9.272;2023-07-20T06:29:08;13.43;;;6.75;;
41167;SDS011;26906;45.658;9.272;2023-07-20T06:31:34;11.93;;;6.43;;
41167;SDS011;26906;45.658;9.272;2023-07-20T06:34:01;11.23;;;6.15;;
41167;SDS011;26906;45.658;9.272;2023-07-20T06:36:27;18.38;;;7.72;;
41167;SDS011;26906;45.658;9.272;2023-07-20T06:38:52;12.57;;;6.50;;
41167;SDS011;26906;45.658;9.272;2023-07-20T06:41:19;16.42;;;6.20;;
41167;SDS011;26906;45.658;9.272;2023-07-20T06:43:45;11.95;;;5.85;;
41167;SDS011;26906;45.658;9.272;2023-07-20T06:46:11;13.48;;;6.47;;
41167;SDS011;26906;45.658;9.272;2023-07-20T06:48:37;12.98;;;5.97;;
41167;SDS011;26906;45.658;9.272;2023-07-20T06:51:02;11.55;;;6.10;;
41167;SDS011;26906;45.658;9.272;2023-07-20T06:53:28;12.52;;;6.07;;
41167;SDS011;26906;45.658;9.272;2023-07-20T06:55:55;11.02;;;6.47;;
41167;SDS011;26906;45.658;9.272;2023-07-20T06:58:22;13.63;;;6.20;;
41167;SDS011;26906;45.658;9.272;2023-07-20T07:00:48;10.63;;;6.20;;
41167;SDS011;26906;45.658;9.272;2023-07-20T07:03:14;14.45;;;7.00;;
41167;SDS011;26906;45.658;9.272;2023-07-20T07:05:40;23.83;;;7.53;;
41167;SDS011;26906;45.658;9.272;2023-07-20T07:08:05;13.90;;;6.32;;
41167;SDS011;26906;45.658;9.272;2023-07-20T07:10:31;14.23;;;6.90;;
41167;SDS011;26906;45.658;9.272;2023-07-20T07:12:58;15.52;;;7.18;;
41167;SDS011;26906;45.658;9.272;2023-07-20T07:15:23;11.35;;;6.45;;
41167;SDS011;26906;45.658;9.272;2023-07-20T07:17:49;14.55;;;7.35;;
41167;SDS011;26906;45.658;9.272;2023-07-20T07:20:15;19.20;;;7.40;;
41167;SDS011;26906;45.658;9.272;2023-07-20T07:22:41;15.02;;;6.78;;
41167;SDS011;26906;45.658;9.272;2023-07-20T07:25:09;13.30;;;6.32;;
41167;SDS011;26906;45.658;9.272;2023-07-20T07:27:35;12.63;;;6.72;;
41167;SDS011;26906;45.658;9.272;2023-07-20T07:30:01;15.18;;;5.85;;
41167;SDS011;26906;45.658;9.272;2023-07-20T07:32:30;11.55;;;6.63;;
41167;SDS011;26906;45.658;9.272;2023-07-20T07:34:56;15.27;;;6.22;;
41167;SDS011;26906;45.658;9.272;2023-07-20T07:37:24;12.57;;;6.30;;
41167;SDS011;26906;45.658;9.272;2023-07-20T07:39:50;17.00;;;5.50;;
41167;SDS011;26906;45.658;9.272;2023-07-20T07:42:16;11.65;;;5.50;;
41167;SDS011;26906;45.658;9.272;2023-07-20T07:44:41;8.35;;;4.50;;
41167;SDS011;26906;45.658;9.272;2023-07-20T07:47:07;10.60;;;4.57;;
41167;SDS011;26906;45.658;9.272;2023-07-20T07:49:33;10.20;;;5.18;;
41167;SDS011;26906;45.658;9.272;2023-07-20T07:51:58;7.07;;;4.43;;
41167;SDS011;26906;45.658;9.272;2023-07-20T07:54:27;9.98;;;4.50;;
41167;SDS011;26906;45.658;9.272;2023-07-20T07:56:56;9.50;;;4.60;;
41167;SDS011;26906;45.658;9.272;2023-07-20T07:59:21;15.80;;;5.63;;
41167;SDS011;26906;45.658;9.272;2023-07-20T08:01:48;10.13;;;4.72;;
41167;SDS011;26906;45.658;9.272;2023-07-20T08:04:13;10.02;;;5.22;;
41167;SDS011;26906;45.658;9.272;2023-07-20T08:06:39;13.02;;;5.07;;
41167;SDS011;26906;45.658;9.272;2023-07-20T08:09:05;12.02;;;4.38;;
41167;SDS011;26906;45.658;9.272;2023-07-20T08:11:30;10.45;;;4.53;;
41167;SDS011;26906;45.658;9.272;2023-07-20T08:13:59;9.38;;;4.70;;
41167;SDS011;26906;45.658;9.272;2023-07-20T08:16:25;8.43;;;4.85;;
41167;SDS011;26906;45.658;9.272;2023-07-20T08:18:51;11.57;;;5.07;;
41167;SDS011;26906;45.658;9.272;2023-07-20T08:21:17;12.48;;;4.72;;
41167;SDS011;26906;45.658;9.272;2023-07-20T08:23:43;9.85;;;4.75;;
41167;SDS011;26906;45.658;9.272;2023-07-20T08:26:08;9.98;;;5.13;;
41167;SDS011;26906;45.658;9.272;2023-07-20T08:28:34;10.88;;;4.80;;
41167;SDS011;26906;45.658;9.272;2023-07-20T08:31:01;8.48;;;4.82;;
41167;SDS011;26906;45.658;9.272;2023-07-20T08:33:27;9.85;;;4.50;;
41167;SDS011;26906;45.658;9.272;2023-07-20T08:35:54;10.23;;;4.72;;
41167;SDS011;26906;45.658;9.272;2023-07-20T08:38:21;8.43;;;4.78;;
41167;SDS011;26906;45.658;9.272;2023-07-20T08:40:47;13.02;;;4.70;;
41167;SDS011;26906;45.658;9.272;2023-07-20T08:43:13;8.95;;;4.80;;
41167;SDS011;26906;45.658;9.272;2023-07-20T08:45:41;10.90;;;4.60;;
41167;SDS011;26906;45.658;9.272;2023-07-20T08:48:10;7.85;;;4.80;;
41167;SDS011;26906;45.658;9.272;2023-07-20T08:50:37;9.05;;;5.20;;
41167;SDS011;26906;45.658;9.272;2023-07-20T08:53:03;10.77;;;4.68;;
41167;SDS011;26906;45.658;9.272;2023-07-20T08:55:30;9.15;;;4.43;;
41167;SDS011;26906;45.658;9.272;2023-07-20T08:58:00;10.25;;;4.60;;
41167;SDS011;26906;45.658;9.272;2023-07-20T09:00:27;10.43;;;4.90;;
41167;SDS011;26906;45.658;9.272;2023-07-20T09:02:56;9.63;;;5.30;;
41167;SDS011;26906;45.658;9.272;2023-07-20T09:05:23;7.75;;;4.38;;
41167;SDS011;26906;45.658;9.272;2023-07-20T09:07:52;9.43;;;4.97;;
41167;SDS011;26906;45.658;9.272;2023-07-20T09:10:19;9.88;;;5.35;;
41167;SDS011;26906;45.658;9.272;2023-07-20T09:12:47;11.00;;;5.28;;
41167;SDS011;26906;45.658;9.272;2023-07-20T09:15:14;9.95;;;5.20;;
41167;SDS011;26906;45.658;9.272;2023-07-20T09:17:47;10.35;;;4.85;;
41167;SDS011;26906;45.658;9.272;2023-07-20T09:20:19;9.73;;;4.35;;
41167;SDS011;26906;45.658;9.272;2023-07-20T09:22:45;6.20;;;3.97;;
41167;SDS011;26906;45.658;9.272;2023-07-20T09:25:12;8.80;;;5.15;;
41167;SDS011;26906;45.658;9.272;2023-07-20T09:27:39;19.25;;;4.68;;
41167;SDS011;26906;45.658;9.272;2023-07-20T09:30:07;10.00;;;5.07;;
41167;SDS011;26906;45.658;9.272;2023-07-20T09:32:41;7.22;;;4.47;;
41167;SDS011;26906;45.658;9.272;2023-07-20T09:35:12;7.80;;;5.05;;
41167;SDS011;26906;45.658;9.272;2023-07-20T09:37:40;7.28;;;4.75;;
41167;SDS011;26906;45.658;9.272;2023-07-20T09:40:10;7.28;;;5.10;;
41167;SDS011;26906;45.658;9.272;2023-07-20T09:42:39;11.07;;;5.10;;
41167;SDS011;26906;45.658;9.272;2023-07-20T09:45:06;8.10;;;5.13;;
41167;SDS011;26906;45.658;9.272;2023-07-20T09:47:34;11.70;;;4.97;;
41167;SDS011;26906;45.658;9.272;2023-07-20T09:50:02;8.73;;;4.28;;
41167;SDS011;26906;45.658;9.272;2023-07-20T09:52:28;7.13;;;4.57;;
41167;SDS011;26906;45.658;9.272;2023-07-20T09:54:54;13.55;;;5.50;;
41167;SDS011;26906;45.658;9.272;2023-07-20T09:57:21;7.70;;;4.82;;
41167;SDS011;26906;45.658;9.272;2023-07-20T09:59:46;8.82;;;5.00;;
41167;SDS011;26906;45.658;9.272;2023-07-20T10:02:46;10.13;;;5.22;;
41167;SDS011;26906;45.658;9.272;2023-07-20T10:05:07;13.57;;;5.45;;
41167;SDS011;26906;45.658;9.272;2023-07-20T10:07:34;9.77;;;5.18;;
41167;SDS011;26906;45.658;9.272;2023-07-20T10:10:02;9.10;;;5.05;;
41167;SDS011;26906;45.658;9.272;2023-07-20T10:12:28;9.07;;;4.90;;
41167;SDS011;26906;45.658;9.272;2023-07-20T10:18:12;12.18;;;5.25;;
41167;SDS011;26906;45.658;9.272;2023-07-20T10:20:42;9.60;;;5.15;;
41167;SDS011;26906;45.658;9.272;2023-07-20T10:23:09;10.35;;;4.82;;
41167;SDS011;26906;45.658;9.272;2023-07-20T10:25:36;8.70;;;4.53;;
41167;SDS011;26906;45.658;9.272;2023-07-20T10:28:06;7.95;;;4.93;;
41167;SDS011;26906;45.658;9.272;2023-07-20T10:30:33;6.35;;;4.18;;
41167;SDS011;26906;45.658;9.272;2023-07-20T10:33:01;9.38;;;4.65;;
41167;SDS011;26906;45.658;9.272;2023-07-20T10:35:31;7.25;;;4.57;;
41167;SDS011;26906;45.658;9.272;2023-07-20T10:38:15;8.55;;;4.45;;
41167;SDS011;26906;45.658;9.272;2023-07-20T10:40:41;8.45;;;5.03;;
41167;SDS011;26906;45.658;9.272;2023-07-20T10:43:07;8.95;;;4.45;;
41167;SDS011;26906;45.658;9.272;2023-07-20T10:45:35;6.38;;;4.70;;
41167;SDS011;26906;45.658;9.272;2023-07-20T10:48:12;14.30;;;5.18;;
41167;SDS011;26906;45.658;9.272;2023-07-20T10:53:35;8.57;;;4.88;;
41167;SDS011;26906;45.658;9.272;2023-07-20T10:56:34;7.68;;;4.38;;
41167;SDS011;26906;45.658;9.272;2023-07-20T10:58:59;9.98;;;4.70;;
41167;SDS011;26906;45.658;9.272;2023-07-20T11:01:35;11.25;;;4.80;;
41167;SDS011;26906;45.658;9.272;2023-07-20T11:04:02;9.95;;;4.75;;
41167;SDS011;26906;45.658;9.272;2023-07-20T11:06:33;8.23;;;4.32;;
41167;SDS011;26906;45.658;9.272;2023-07-20T11:09:06;10.27;;;4.88;;
41167;SDS011;26906;45.658;9.272;2023-07-20T11:11:37;9.25;;;4.40;;
41167;SDS011;26906;45.658;9.272;2023-07-20T11:16:34;30.70;;;6.25;;
41167;SDS011;26906;45.658;9.272;2023-07-20T11:19:02;7.50;;;4.97;;
41167;SDS011;26906;45.658;9.272;2023-07-20T11:21:29;8.70;;;5.18;;
41167;SDS011;26906;45.658;9.272;2023-07-20T11:24:00;9.13;;;4.85;;
41167;SDS011;26906;45.658;9.272;2023-07-20T11:26:28;10.10;;;4.30;;
41167;SDS011;26906;45.658;9.272;2023-07-20T11:28:54;8.07;;;4.80;;
41167;SDS011;26906;45.658;9.272;2023-07-20T11:31:19;9.25;;;4.65;;
41167;SDS011;26906;45.658;9.272;2023-07-20T11:33:46;7.30;;;4.15;;
41167;SDS011;26906;45.658;9.272;2023-07-20T11:36:12;7.53;;;4.15;;
41167;SDS011;26906;45.658;9.272;2023-07-20T11:38:39;8.23;;;4.50;;
41167;SDS011;26906;45.658;9.272;2023-07-20T11:41:08;9.75;;;4.50;;
41167;SDS011;26906;45.658;9.272;2023-07-20T11:43:33;7.32;;;4.50;;
41167;SDS011;26906;45.658;9.272;2023-07-20T11:45:59;7.65;;;4.72;;
41167;SDS011;26906;45.658;9.272;2023-07-20T11:48:26;10.55;;;4.40;;
41167;SDS011;26906;45.658;9.272;2023-07-20T11:50:51;8.38;;;4.50;;
41167;SDS011;26906;45.658;9.272;2023-07-20T11:53:17;8.40;;;4.43;;
41167;SDS011;26906;45.658;9.272;2023-07-20T11:55:43;9.27;;;4.10;;
41167;SDS011;26906;45.658;9.272;2023-07-20T11:58:10;8.13;;;4.38;;
41167;SDS011;26906;45.658;9.272;2023-07-20T12:00:38;6.03;;;4.45;;
41167;SDS011;26906;45.658;9.272;2023-07-20T12:03:05;6.30;;;4.50;;
41167;SDS011;26906;45.658;9.272;2023-07-20T12:05:32;6.32;;;4.00;;
41167;SDS011;26906;45.658;9.272;2023-07-20T12:07:58;8.70;;;4.50;;
41167;SDS011;26906;45.658;9.272;2023-07-20T12:10:25;7.38;;;4.72;;
41167;SDS011;26906;45.658;9.272;2023-07-20T12:12:52;7.53;;;4.50;;
41167;SDS011;26906;45.658;9.272;2023-07-20T12:15:22;6.53;;;4.22;;
41167;SDS011;26906;45.658;9.272;2023-07-20T12:17:49;5.20;;;4.30;;
41167;SDS011;26906;45.658;9.272;2023-07-20T12:22:56;10.82;;;4.82;;
41167;SDS011;26906;45.658;9.272;2023-07-20T12:25:44;9.45;;;4.30;;
41167;SDS011;26906;45.658;9.272;2023-07-20T12:28:15;6.63;;;4.45;;
41167;SDS011;26906;45.658;9.272;2023-07-20T12:30:42;9.43;;;5.07;;
41167;SDS011;26906;45.658;9.272;2023-07-20T12:33:09;14.80;;;4.88;;
41167;SDS011;26906;45.658;9.272;2023-07-20T12:35:36;9.10;;;4.88;;
41167;SDS011;26906;45.658;9.272;2023-07-20T12:38:02;7.10;;;4.25;;
41167;SDS011;26906;45.658;9.272;2023-07-20T12:40:28;7.22;;;4.50;;
41167;SDS011;26906;45.658;9.272;2023-07-20T12:42:54;7.50;;;4.63;;
41167;SDS011;26906;45.658;9.272;2023-07-20T12:45:20;8.75;;;5.20;;
41167;SDS011;26906;45.658;9.272;2023-07-20T12:47:46;7.13;;;4.55;;
41167;SDS011;26906;45.658;9.272;2023-07-20T12:50:12;7.45;;;4.05;;
41167;SDS011;26906;45.658;9.272;2023-07-20T12:52:38;7.75;;;4.60;;
41167;SDS011;26906;45.658;9.272;2023-07-20T12:55:05;8.05;;;5.38;;
41167;SDS011;26906;45.658;9.272;2023-07-20T12:57:33;11.32;;;6.05;;
41167;SDS011;26906;45.658;9.272;2023-07-20T12:59:59;16.20;;;7.35;;
41167;SDS011;26906;45.658;9.272;2023-07-20T13:02:26;26.58;;;7.07;;
41167;SDS011;26906;45.658;9.272;2023-07-20T13:04:54;12.15;;;6.18;;
41167;SDS011;26906;45.658;9.272;2023-07-20T13:07:28;10.20;;;6.07;;
41167;SDS011;26906;45.658;9.272;2023-07-20T13:09:56;11.25;;;6.57;;
41167;SDS011;26906;45.658;9.272;2023-07-20T13:12:21;11.70;;;6.40;;
41167;SDS011;26906;45.658;9.272;2023-07-20T13:14:47;10.88;;;6.47;;
41167;SDS011;26906;45.658;9.272;2023-07-20T13:17:13;15.32;;;6.10;;
41167;SDS011;26906;45.658;9.272;2023-07-20T13:19:38;10.73;;;6.13;;
41167;SDS011;26906;45.658;9.272;2023-07-20T13:22:04;8.98;;;6.32;;
41167;SDS011;26906;45.658;9.272;2023-07-20T13:24:30;9.40;;;6.80;;
41167;SDS011;26906;45.658;9.272;2023-07-20T13:26:55;11.07;;;6.05;;
41167;SDS011;26906;45.658;9.272;2023-07-20T13:29:21;9.88;;;6.43;;
41167;SDS011;26906;45.658;9.272;2023-07-20T13:31:47;14.40;;;6.85;;
41167;SDS011;26906;45.658;9.272;2023-07-20T13:34:12;10.98;;;6.30;;
41167;SDS011;26906;45.658;9.272;2023-07-20T13:36:38;13.50;;;7.15;;
41167;SDS011;26906;45.658;9.272;2023-07-20T13:39:04;13.38;;;7.20;;
41167;SDS011;26906;45.658;9.272;2023-07-20T13:41:30;11.23;;;6.68;;
41167;SDS011;26906;45.658;9.272;2023-07-20T13:43:57;13.25;;;6.97;;
41167;SDS011;26906;45.658;9.272;2023-07-20T13:46:23;12.73;;;6.65;;
41167;SDS011;26906;45.658;9.272;2023-07-20T13:48:48;13.07;;;6.88;;
41167;SDS011;26906;45.658;9.272;2023-07-20T13:51:14;11.82;;;6.43;;
41167;SDS011;26906;45.658;9.272;2023-07-20T13:53:40;15.10;;;6.20;;
41167;SDS011;26906;45.658;9.272;2023-07-20T13:56:06;16.75;;;6.95;;
41167;SDS011;26906;45.658;9.272;2023-07-20T13:58:32;10.13;;;6.15;;
41167;SDS011;26906;45.658;9.272;2023-07-20T14:00:58;11.02;;;6.95;;
41167;SDS011;26906;45.658;9.272;2023-07-20T14:03:24;11.48;;;6.63;;
41167;SDS011;26906;45.658;9.272;2023-07-20T14:05:50;13.32;;;6.78;;
41167;SDS011;26906;45.658;9.272;2023-07-20T14:08:15;15.55;;;7.53;;
41167;SDS011;26906;45.658;9.272;2023-07-20T14:10:41;12.23;;;6.22;;
41167;SDS011;26906;45.658;9.272;2023-07-20T14:13:07;10.65;;;6.35;;
41167;SDS011;26906;45.658;9.272;2023-07-20T14:15:33;13.77;;;6.50;;
41167;SDS011;26906;45.658;9.272;2023-07-20T14:18:00;9.98;;;5.95;;
41167;SDS011;26906;45.658;9.272;2023-07-20T14:20:26;14.13;;;7.00;;
41167;SDS011;26906;45.658;9.272;2023-07-20T14:22:52;14.98;;;7.35;;
41167;SDS011;26906;45.658;9.272;2023-07-20T14:25:17;19.40;;;7.30;;
41167;SDS011;26906;45.658;9.272;2023-07-20T14:27:43;11.40;;;6.40;;
41167;SDS011;26906;45.658;9.272;2023-07-20T14:30:09;12.18;;;6.53;;
41167;SDS011;26906;45.658;9.272;2023-07-20T14:32:35;13.40;;;7.90;;
41167;SDS011;26906;45.658;9.272;2023-07-20T14:35:00;18.08;;;7.65;;
41167;SDS011;26906;45.658;9.272;2023-07-20T14:37:27;11.98;;;7.53;;
41167;SDS011;26906;45.658;9.272;2023-07-20T14:39:52;11.05;;;6.47;;
41167;SDS011;26906;45.658;9.272;2023-07-20T14:42:18;14.13;;;7.43;;
41167;SDS011;26906;45.658;9.272;2023-07-20T14:44:44;10.15;;;6.50;;
41167;SDS011;26906;45.658;9.272;2023-07-20T14:47:10;13.55;;;6.82;;
41167;SDS011;26906;45.658;9.272;2023-07-20T14:49:35;10.57;;;6.65;;
41167;SDS011;26906;45.658;9.272;2023-07-20T14:52:01;19.80;;;7.55;;
41167;SDS011;26906;45.658;9.272;2023-07-20T14:54:28;11.45;;;7.13;;
41167;SDS011;26906;45.658;9.272;2023-07-20T14:56:54;9.32;;;5.93;;
41167;SDS011;26906;45.658;9.272;2023-07-20T14:59:22;12.32;;;6.80;;
41167;SDS011;26906;45.658;9.272;2023-07-20T15:01:47;14.30;;;7.30;;
41167;SDS011;26906;45.658;9.272;2023-07-20T15:04:13;8.73;;;6.32;;
41167;SDS011;26906;45.658;9.272;2023-07-20T15:06:41;12.25;;;6.65;;
41167;SDS011;26906;45.658;9.272;2023-07-20T15:09:07;12.35;;;6.35;;
41167;SDS011;26906;45.658;9.272;2023-07-20T15:11:33;10.98;;;6.68;;
41167;SDS011;26906;45.658;9.272;2023-07-20T15:13:59;14.50;;;7.18;;
41167;SDS011;26906;45.658;9.272;2023-07-20T15:16:25;12.15;;;6.50;;
41167;SDS011;26906;45.658;9.272;2023-07-20T15:18:50;13.27;;;6.90;;
41167;SDS011;26906;45.658;9.272;2023-07-20T15:21:17;13.45;;;7.32;;
41167;SDS011;26906;45.658;9.272;2023-07-20T15:23:43;8.95;;;6.15;;
41167;SDS011;26906;45.658;9.272;2023-07-20T15:26:09;16.63;;;6.55;;
41167;SDS011;26906;45.658;9.272;2023-07-20T15:28:36;13.45;;;6.55;;
41167;SDS011;26906;45.658;9.272;2023-07-20T15:31:02;15.50;;;7.22;;
41167;SDS011;26906;45.658;9.272;2023-07-20T15:33:29;10.73;;;5.68;;
41167;SDS011;26906;45.658;9.272;2023-07-20T15:35:55;10.40;;;6.30;;
41167;SDS011;26906;45.658;9.272;2023-07-20T15:38:21;10.65;;;6.40;;
41167;SDS011;26906;45.658;9.272;2023-07-20T15:40:47;9.43;;;6.65;;
41167;SDS011;26906;45.658;9.272;2023-07-20T15:43:14;12.40;;;7.35;;
41167;SDS011;26906;45.658;9.272;2023-07-20T15:45:40;11.20;;;6.30;;
41167;SDS011;26906;45.658;9.272;2023-07-20T15:48:06;10.05;;;6.40;;
41167;SDS011;26906;45.658;9.272;2023-07-20T15:50:31;10.90;;;6.22;;
41167;SDS011;26906;45.658;9.272;2023-07-20T15:52:57;12.02;;;5.88;;
41167;SDS011;26906;45.658;9.272;2023-07-20T15:55:23;12.02;;;6.30;;
41167;SDS011;26906;45.658;9.272;2023-07-20T15:57:49;10.05;;;6.22;;
41167;SDS011;26906;45.658;9.272;2023-07-20T16:00:15;14.77;;;6.22;;
41167;SDS011;26906;45.658;9.272;2023-07-20T16:02:43;12.45;;;5.97;;
41167;SDS011;26906;45.658;9.272;2023-07-20T16:05:08;13.48;;;6.00;;
41167;SDS011;26906;45.658;9.272;2023-07-20T16:07:34;13.32;;;7.03;;
41167;SDS011;26906;45.658;9.272;2023-07-20T16:09:59;9.30;;;5.85;;
41167;SDS011;26906;45.658;9.272;2023-07-20T16:12:27;8.77;;;6.13;;
41167;SDS011;26906;45.658;9.272;2023-07-20T16:14:55;10.20;;;5.30;;
41167;SDS011;26906;45.658;9.272;2023-07-20T16:17:21;12.15;;;5.80;;
41167;SDS011;26906;45.658;9.272;2023-07-20T16:19:47;12.80;;;5.75;;
41167;SDS011;26906;45.658;9.272;2023-07-20T16:22:12;11.68;;;6.18;;
41167;SDS011;26906;45.658;9.272;2023-07-20T16:24:38;10.25;;;5.93;;
41167;SDS011;26906;45.658;9.272;2023-07-20T16:27:05;11.88;;;5.43;;
41167;SDS011;26906;45.658;9.272;2023-07-20T16:29:31;13.35;;;6.32;;
41167;SDS011;26906;45.658;9.272;2023-07-20T16:31:57;9.23;;;5.70;;
41167;SDS011;26906;45.658;9.272;2023-07-20T16:34:23;10.82;;;5.82;;
41167;SDS011;26906;45.658;9.272;2023-07-20T16:36:48;10.38;;;6.10;;
41167;SDS011;26906;45.658;9.272;2023-07-20T16:39:14;11.25;;;5.57;;
41167;SDS011;26906;45.658;9.272;2023-07-20T16:41:40;8.90;;;5.72;;
41167;SDS011;26906;45.658;9.272;2023-07-20T16:44:06;8.98;;;6.15;;
41167;SDS011;26906;45.658;9.272;2023-07-20T16:46:32;11.98;;;5.57;;
41167;SDS011;26906;45.658;9.272;2023-07-20T16:48:58;9.25;;;5.03;;
41167;SDS011;26906;45.658;9.272;2023-07-20T16:51:30;13.05;;;5.97;;
41167;SDS011;26906;45.658;9.272;2023-07-20T16:54:02;7.82;;;5.32;;
41167;SDS011;26906;45.658;9.272;2023-07-20T16:56:30;8.13;;;5.30;;
41167;SDS011;26906;45.658;9.272;2023-07-20T16:58:55;11.65;;;5.93;;
41167;SDS011;26906;45.658;9.272;2023-07-20T17:01:21;8.40;;;5.45;;
41167;SDS011;26906;45.658;9.272;2023-07-20T17:03:47;8.98;;;5.40;;
41167;SDS011;26906;45.658;9.272;2023-07-20T17:06:14;8.73;;;5.43;;
41167;SDS011;26906;45.658;9.272;2023-07-20T17:08:40;8.75;;;4.47;;
41167;SDS011;26906;45.658;9.272;2023-07-20T17:11:06;10.38;;;5.28;;
41167;SDS011;26906;45.658;9.272;2023-07-20T17:13:33;8.25;;;5.03;;
41167;SDS011;26906;45.658;9.272;2023-07-20T17:15:58;11.88;;;5.00;;
41167;SDS011;26906;45.658;9.272;2023-07-20T17:18:24;10.63;;;6.30;;
41167;SDS011;26906;45.658;9.272;2023-07-20T17:20:50;9.60;;;5.80;;
41167;SDS011;26906;45.658;9.272;2023-07-20T17:23:16;16.27;;;7.25;;
41167;SDS011;26906;45.658;9.272;2023-07-20T17:25:46;12.00;;;7.68;;
41167;SDS011;26906;45.658;9.272;2023-07-20T17:28:12;12.20;;;6.55;;
41167;SDS011;26906;45.658;9.272;2023-07-20T17:30:39;11.88;;;5.03;;
41167;SDS011;26906;45.658;9.272;2023-07-20T17:33:05;8.82;;;5.30;;
41167;SDS011;26906;45.658;9.272;2023-07-20T17:35:31;10.05;;;5.43;;
41167;SDS011;26906;45.658;9.272;2023-07-20T17:37:57;9.80;;;5.05;;
41167;SDS011;26906;45.658;9.272;2023-07-20T17:40:22;10.63;;;5.53;;
41167;SDS011;26906;45.658;9.272;2023-07-20T17:42:50;10.02;;;5.15;;
41167;SDS011;26906;45.658;9.272;2023-07-20T17:45:16;11.80;;;5.78;;
41167;SDS011;26906;45.658;9.272;2023-07-20T17:47:41;9.27;;;5.18;;
41167;SDS011;26906;45.658;9.272;2023-07-20T17:50:08;11.13;;;7.13;;
41167;SDS011;26906;45.658;9.272;2023-07-20T17:52:38;13.90;;;6.38;;
41167;SDS011;26906;45.658;9.272;2023-07-20T17:55:04;10.52;;;6.45;;
41167;SDS011;26906;45.658;9.272;2023-07-20T17:57:30;12.20;;;5.55;;
41167;SDS011;26906;45.658;9.272;2023-07-20T17:59:56;10.65;;;6.03;;
41167;SDS011;26906;45.658;9.272;2023-07-20T18:02:23;10.88;;;6.18;;
41167;SDS011;26906;45.658;9.272;2023-07-20T18:04:51;11.07;;;6.10;;
41167;SDS011;26906;45.658;9.272;2023-07-20T18:07:17;11.70;;;5.65;;
41167;SDS011;26906;45.658;9.272;2023-07-20T18:09:43;11.82;;;5.90;;
41167;SDS011;26906;45.658;9.272;2023-07-20T18:12:09;10.23;;;5.53;;
41167;SDS011;26906;45.658;9.272;2023-07-20T18:14:34;13.38;;;6.10;;
41167;SDS011;26906;45.658;9.272;2023-07-20T18:17:00;7.90;;;5.95;;
41167;SDS011;26906;45.658;9.272;2023-07-20T18:19:26;10.45;;;5.65;;
41167;SDS011;26906;45.658;9.272;2023-07-20T18:21:51;13.80;;;5.63;;
41167;SDS011;26906;45.658;9.272;2023-07-20T18:24:17;12.68;;;5.93;;
41167;SDS011;26906;45.658;9.272;2023-07-20T18:26:43;11.43;;;5.60;;
41167;SDS011;26906;45.658;9.272;2023-07-20T18:29:09;9.07;;;5.57;;
41167;SDS011;26906;45.658;9.272;2023-07-20T18:31:34;12.15;;;5.78;;
41167;SDS011;26906;45.658;9.272;2023-07-20T18:34:00;8.90;;;5.57;;
41167;SDS011;26906;45.658;9.272;2023-07-20T18:36:26;8.93;;;5.53;;
41167;SDS011;26906;45.658;9.272;2023-07-20T18:38:51;14.48;;;5.82;;
41167;SDS011;26906;45.658;9.272;2023-07-20T18:41:17;21.48;;;6.63;;
41167;SDS011;26906;45.658;9.272;2023-07-20T18:43:43;11.82;;;5.55;;
41167;SDS011;26906;45.658;9.272;2023-07-20T18:46:08;9.68;;;5.55;;
41167;SDS011;26906;45.658;9.272;2023-07-20T18:48:34;11.45;;;5.85;;
41167;SDS011;26906;45.658;9.272;2023-07-20T18:51:00;10.27;;;5.68;;
41167;SDS011;26906;45.658;9.272;2023-07-20T18:53:25;7.80;;;5.25;;
41167;SDS011;26906;45.658;9.272;2023-07-20T18:55:51;12.95;;;5.60;;
41167;SDS011;26906;45.658;9.272;2023-07-20T18:58:17;12.15;;;5.53;;
41167;SDS011;26906;45.658;9.272;2023-07-20T19:00:42;11.55;;;5.45;;
41167;SDS011;26906;45.658;9.272;2023-07-20T19:03:09;13.50;;;6.13;;
41167;SDS011;26906;45.658;9.272;2023-07-20T19:05:34;12.00;;;6.18;;
41167;SDS011;26906;45.658;9.272;2023-07-20T19:08:06;12.00;;;5.85;;
41167;SDS011;26906;45.658;9.272;2023-07-20T19:10:32;12.07;;;5.78;;
41167;SDS011;26906;45.658;9.272;2023-07-20T19:12:58;15.68;;;6.78;;
41167;SDS011;26906;45.658;9.272;2023-07-20T19:15:24;13.77;;;6.25;;
41167;SDS011;26906;45.658;9.272;2023-07-20T19:17:49;10.63;;;6.35;;
41167;SDS011;26906;45.658;9.272;2023-07-20T19:20:15;10.88;;;6.45;;
41167;SDS011;26906;45.658;9.272;2023-07-20T19:22:42;12.30;;;6.53;;
41167;SDS011;26906;45.658;9.272;2023-07-20T19:25:08;10.43;;;6.20;;
41167;SDS011;26906;45.658;9.272;2023-07-20T19:27:36;16.80;;;6.82;;
41167;SDS011;26906;45.658;9.272;2023-07-20T19:30:03;12.70;;;6.70;;
41167;SDS011;26906;45.658;9.272;2023-07-20T19:32:29;19.20;;;8.10;;
41167;SDS011;26906;45.658;9.272;2023-07-20T19:34:55;12.10;;;6.90;;
41167;SDS011;26906;45.658;9.272;2023-07-20T19:37:21;13.15;;;7.55;;
41167;SDS011;26906;45.658;9.272;2023-07-20T19:39:47;13.85;;;7.60;;
41167;SDS011;26906;45.658;9.272;2023-07-20T19:42:12;13.00;;;7.60;;
41167;SDS011;26906;45.658;9.272;2023-07-20T19:44:38;11.82;;;7.45;;
41167;SDS011;26906;45.658;9.272;2023-07-20T19:47:04;14.30;;;7.35;;
41167;SDS011;26906;45.658;9.272;2023-07-20T19:49:30;14.13;;;8.05;;
41167;SDS011;26906;45.658;9.272;2023-07-20T19:51:56;14.85;;;7.40;;
41167;SDS011;26906;45.658;9.272;2023-07-20T19:54:22;12.30;;;7.22;;
41167;SDS011;26906;45.658;9.272;2023-07-20T19:56:48;11.27;;;7.05;;
41167;SDS011;26906;45.658;9.272;2023-07-20T19:59:14;10.85;;;6.68;;
41167;SDS011;26906;45.658;9.272;2023-07-20T20:01:39;9.93;;;6.30;;
41167;SDS011;26906;45.658;9.272;2023-07-20T20:04:06;10.45;;;6.30;;
41167;SDS011;26906;45.658;9.272;2023-07-20T20:06:31;11.63;;;6.53;;
41167;SDS011;26906;45.658;9.272;2023-07-20T20:08:57;12.32;;;6.65;;
41167;SDS011;26906;45.658;9.272;2023-07-20T20:11:23;11.50;;;6.85;;
41167;SDS011;26906;45.658;9.272;2023-07-20T20:13:49;12.57;;;7.00;;
41167;SDS011;26906;45.658;9.272;2023-07-20T20:16:18;13.68;;;6.88;;
41167;SDS011;26906;45.658;9.272;2023-07-20T20:18:44;12.77;;;7.43;;
41167;SDS011;26906;45.658;9.272;2023-07-20T20:21:10;15.10;;;7.53;;